createdAt,value
2019-02-09T00:00:28.259Z,2.40
2019-02-09T00:02:56.529Z,2.50
2019-02-09T00:05:24.765Z,2.35
2019-02-09T00:07:53.078Z,2.40
2019-02-09T00:10:21.331Z,2.23
2019-02-09T00:12:49.636Z,2.67
2019-02-09T00:15:17.947Z,2.47
2019-02-09T00:17:46.177Z,2.30
2019-02-09T00:20:16.363Z,2.67
2019-02-09T00:22:44.685Z,2.43
2019-02-09T00:25:16.099Z,2.77
2019-02-09T00:27:44.339Z,2.90
2019-02-09T00:30:16.975Z,2.53
2019-02-09T00:32:45.217Z,2.80
2019-02-09T00:35:17.496Z,2.10
2019-02-09T00:37:45.740Z,2.60
2019-02-09T00:40:16.421Z,3.07
2019-02-09T00:42:44.689Z,2.67
2019-02-09T00:45:15.361Z,3.00
2019-02-09T00:47:43.692Z,2.90
2019-02-09T00:50:14.246Z,2.95
2019-02-09T00:52:42.505Z,2.90
2019-02-09T00:55:22.295Z,3.20
2019-02-09T00:57:50.546Z,2.90
2019-02-09T01:00:21.893Z,3.40
2019-02-09T01:02:50.140Z,3.20
2019-02-09T01:05:23.875Z,3.02
2019-02-09T01:07:52.129Z,2.83
2019-02-09T01:10:21.117Z,3.70
2019-02-09T01:12:49.366Z,2.40
2019-02-09T01:15:18.463Z,3.03
2019-02-09T01:17:46.806Z,3.37
2019-02-09T01:20:20.857Z,3.47
2019-02-09T01:22:49.182Z,3.43
2019-02-09T01:25:17.514Z,3.27
2019-02-09T01:27:45.775Z,3.53
2019-02-09T01:30:19.959Z,3.70
2019-02-09T01:32:48.458Z,3.25
2019-02-09T01:35:16.783Z,3.70
2019-02-09T01:37:45.118Z,3.20
2019-02-09T01:40:18.842Z,3.30
2019-02-09T01:42:47.077Z,3.20
2019-02-09T01:45:23.679Z,3.40
2019-02-09T01:47:51.917Z,3.10
2019-02-09T01:50:21.730Z,3.20
2019-02-09T01:52:50.045Z,3.90
2019-02-09T01:55:18.364Z,2.83
2019-02-09T01:57:46.639Z,3.37
2019-02-09T02:00:16.920Z,3.20
2019-02-09T02:02:45.149Z,2.97
2019-02-09T02:05:15.649Z,3.13
2019-02-09T02:07:43.890Z,2.90
2019-02-09T02:10:15.309Z,4.33
2019-02-09T02:12:43.571Z,3.30
2019-02-09T02:15:15.230Z,2.83
2019-02-09T02:17:43.544Z,3.42
2019-02-09T02:20:19.980Z,3.40
2019-02-09T02:22:48.232Z,2.70
2019-02-09T02:25:16.711Z,3.20
2019-02-09T02:27:44.978Z,3.47
2019-02-09T02:30:22.655Z,3.30
2019-02-09T02:32:46.374Z,3.37
2019-02-09T02:35:14.632Z,2.77
2019-02-09T02:37:42.875Z,3.22
2019-02-09T02:40:13.561Z,3.57
2019-02-09T02:42:41.820Z,3.50
2019-02-09T02:45:13.118Z,3.13
2019-02-09T02:47:41.386Z,3.70
2019-02-09T02:50:14.532Z,3.40
2019-02-09T02:52:42.775Z,3.50
2019-02-09T02:55:13.882Z,3.57
2019-02-09T02:57:42.144Z,3.43
2019-02-09T03:00:13.428Z,5.30
2019-02-09T03:02:41.706Z,4.47
2019-02-09T03:05:12.682Z,3.73
2019-02-09T03:07:40.936Z,3.87
2019-02-09T03:10:10.621Z,3.40
2019-02-09T03:12:38.870Z,4.17
2019-02-09T03:15:10.303Z,3.52
2019-02-09T03:17:38.550Z,3.80
2019-02-09T03:20:09.916Z,3.30
2019-02-09T03:22:38.168Z,3.77
2019-02-09T03:25:09.649Z,3.30
2019-02-09T03:27:37.899Z,4.40
2019-02-09T03:30:09.552Z,3.50
2019-02-09T03:32:37.822Z,3.08
2019-02-09T03:35:08.409Z,3.35
2019-02-09T03:37:36.648Z,3.98
2019-02-09T03:40:16.570Z,3.15
2019-02-09T03:42:44.951Z,3.23
2019-02-09T03:45:21.621Z,2.85
2019-02-09T03:47:51.228Z,3.40
2019-02-09T03:50:22.604Z,2.60
2019-02-09T03:52:50.868Z,2.83
2019-02-09T03:55:19.121Z,3.00
2019-02-09T03:57:47.365Z,3.00
2019-02-09T04:00:20.796Z,3.23
2019-02-09T04:02:49.410Z,3.70
2019-02-09T04:05:17.755Z,3.03
2019-02-09T04:07:45.991Z,2.97
2019-02-09T04:10:19.833Z,2.90
2019-02-09T04:12:48.220Z,3.20
2019-02-09T04:15:18.429Z,3.20
2019-02-09T04:17:46.723Z,3.00
2019-02-09T04:20:20.199Z,3.02
2019-02-09T04:22:48.506Z,3.00
2019-02-09T04:25:18.395Z,2.70
2019-02-09T04:27:46.641Z,3.10
2019-02-09T04:30:26.091Z,2.90
2019-02-09T04:32:54.411Z,2.70
2019-02-09T04:35:22.753Z,2.87
2019-02-09T04:37:51.041Z,2.98
2019-02-09T04:40:28.834Z,3.33
2019-02-09T04:42:57.082Z,3.15
2019-02-09T04:45:25.339Z,3.10
2019-02-09T04:47:53.579Z,3.30
2019-02-09T04:50:21.965Z,3.30
2019-02-09T04:52:50.275Z,3.07
2019-02-09T04:55:20.215Z,3.40
2019-02-09T04:57:48.596Z,3.00
2019-02-09T05:00:19.766Z,3.20
2019-02-09T05:02:48.019Z,2.90
2019-02-09T05:05:16.269Z,3.33
2019-02-09T05:07:44.508Z,3.43
2019-02-09T05:10:15.381Z,3.67
2019-02-09T05:12:43.626Z,2.75
2019-02-09T05:15:14.215Z,3.17
2019-02-09T05:17:42.535Z,3.53
2019-02-09T05:20:13.331Z,3.03
2019-02-09T05:22:41.571Z,3.30
2019-02-09T05:25:11.848Z,3.03
2019-02-09T05:27:40.108Z,3.17
2019-02-09T05:30:17.244Z,3.83
2019-02-09T05:32:45.499Z,3.10
2019-02-09T05:35:13.882Z,3.23
2019-02-09T05:37:42.154Z,2.70
2019-02-09T05:40:13.376Z,3.53
2019-02-09T05:42:41.629Z,3.23
2019-02-09T05:45:15.440Z,2.60
2019-02-09T05:47:43.678Z,3.40
2019-02-09T05:50:14.869Z,3.37
2019-02-09T05:52:43.117Z,3.70
2019-02-09T05:55:11.455Z,4.83
2019-02-09T05:57:39.776Z,3.57
2019-02-09T06:00:21.337Z,4.37
2019-02-09T06:02:49.588Z,4.25
2019-02-09T06:05:17.851Z,5.23
2019-02-09T06:07:46.085Z,4.37
2019-02-09T06:10:17.547Z,3.50
2019-02-09T06:12:45.793Z,3.83
2019-02-09T06:15:17.261Z,4.30
2019-02-09T06:17:45.521Z,3.70
2019-02-09T06:20:21.704Z,3.80
2019-02-09T06:22:49.959Z,4.50
2019-02-09T06:25:18.277Z,4.07
2019-02-09T06:27:46.602Z,4.33
2019-02-09T06:30:20.406Z,4.50
2019-02-09T06:32:48.704Z,4.40
2019-02-09T06:35:16.994Z,4.78
2019-02-09T06:37:45.211Z,4.57
2019-02-09T06:40:15.877Z,4.63
2019-02-09T06:42:44.203Z,4.50
2019-02-09T06:45:17.223Z,4.30
2019-02-09T06:47:45.549Z,4.45
2019-02-09T06:50:19.160Z,4.03
2019-02-09T06:52:47.388Z,3.83
2019-02-09T06:55:16.382Z,4.50
2019-02-09T06:57:44.691Z,4.00
2019-02-09T07:00:18.316Z,3.00
2019-02-09T07:02:46.559Z,2.90
2019-02-09T07:05:19.455Z,3.73
2019-02-09T07:07:47.807Z,4.12
2019-02-09T07:10:21.439Z,3.50
2019-02-09T07:12:49.698Z,3.60
2019-02-09T07:15:20.959Z,3.52
2019-02-09T07:17:49.233Z,4.08
2019-02-09T07:20:17.550Z,5.30
2019-02-09T07:22:46.150Z,5.20
2019-02-09T07:25:15.016Z,5.90
2019-02-09T07:27:43.265Z,5.70
2019-02-09T07:30:23.221Z,5.93
2019-02-09T07:32:51.547Z,7.50
2019-02-09T07:35:19.882Z,7.93
2019-02-09T07:37:48.142Z,8.60
2019-02-09T07:40:19.485Z,7.73
2019-02-09T07:42:48.546Z,8.65
2019-02-09T07:45:19.039Z,8.23
2019-02-09T07:47:47.286Z,7.50
2019-02-09T07:50:17.364Z,7.25
2019-02-09T07:52:45.628Z,7.03
2019-02-09T07:55:16.473Z,7.90
2019-02-09T07:57:44.716Z,6.53
2019-02-09T08:00:16.293Z,6.70
2019-02-09T08:02:44.523Z,5.80
2019-02-09T08:05:13.608Z,6.47
2019-02-09T08:07:41.998Z,6.15
2019-02-09T08:10:15.623Z,6.70
2019-02-09T08:12:43.928Z,5.65
2019-02-09T08:15:15.350Z,5.97
2019-02-09T08:17:43.600Z,5.40
2019-02-09T08:20:15.007Z,4.75
2019-02-09T08:22:43.319Z,4.30
2019-02-09T08:25:14.961Z,3.80
2019-02-09T08:27:43.219Z,4.30
2019-02-09T08:30:14.575Z,4.10
2019-02-09T08:32:42.846Z,3.27
2019-02-09T08:35:11.164Z,3.60
2019-02-09T08:37:39.405Z,3.73
2019-02-09T08:40:10.302Z,3.30
2019-02-09T08:42:39.931Z,2.77
2019-02-09T08:45:19.295Z,3.30
2019-02-09T08:47:47.606Z,3.30
2019-02-09T08:50:30.555Z,3.10
2019-02-09T08:52:58.826Z,3.33
2019-02-09T08:55:27.077Z,3.27
2019-02-09T08:57:55.311Z,2.83
2019-02-09T09:00:31.626Z,2.50
2019-02-09T09:02:59.935Z,2.80
2019-02-09T09:05:28.358Z,2.75
2019-02-09T09:07:56.753Z,2.50
2019-02-09T09:10:27.436Z,3.87
2019-02-09T09:12:55.914Z,2.52
2019-02-09T09:15:38.304Z,2.73
2019-02-09T09:18:07.111Z,3.37
2019-02-09T09:20:37.799Z,3.10
2019-02-09T09:23:06.061Z,2.70
2019-02-09T09:25:34.313Z,3.40
2019-02-09T09:28:02.648Z,2.55
2019-02-09T09:30:31.830Z,2.98
2019-02-09T09:33:00.075Z,2.85
2019-02-09T09:35:28.333Z,3.00
2019-02-09T09:37:56.849Z,2.90
2019-02-09T09:40:27.405Z,3.23
2019-02-09T09:42:55.786Z,2.57
2019-02-09T09:45:26.828Z,3.20
2019-02-09T09:47:55.163Z,2.80
2019-02-09T09:50:24.997Z,3.03
2019-02-09T09:52:53.259Z,2.45
2019-02-09T09:55:21.503Z,2.90
2019-02-09T09:57:49.750Z,2.90
2019-02-09T10:00:23.174Z,3.20
2019-02-09T10:02:51.458Z,3.17
2019-02-09T10:05:19.718Z,3.30
2019-02-09T10:07:48.009Z,2.50
2019-02-09T10:10:18.102Z,2.87
2019-02-09T10:12:46.486Z,2.67
2019-02-09T10:15:18.726Z,2.50
2019-02-09T10:17:46.946Z,3.37
2019-02-09T10:20:17.794Z,3.10
2019-02-09T10:22:46.024Z,2.87
2019-02-09T10:25:14.800Z,2.23
2019-02-09T10:27:43.497Z,2.90
2019-02-09T10:30:20.475Z,2.33
2019-02-09T10:32:48.955Z,2.43
2019-02-09T10:35:18.434Z,2.57
2019-02-09T10:37:46.962Z,3.70
2019-02-09T10:40:21.035Z,3.40
2019-02-09T10:42:49.362Z,4.80
2019-02-09T10:45:20.155Z,3.10
2019-02-09T10:47:48.375Z,2.80
2019-02-09T10:50:19.680Z,3.12
2019-02-09T10:52:47.914Z,2.40
2019-02-09T10:55:16.252Z,4.13
2019-02-09T10:57:44.567Z,2.87
2019-02-09T11:00:18.750Z,3.10
2019-02-09T11:02:52.067Z,3.77
2019-02-09T11:05:17.379Z,2.85
2019-02-09T11:07:45.648Z,2.90
2019-02-09T11:10:17.100Z,2.43
2019-02-09T11:12:45.314Z,2.67
2019-02-09T11:15:16.663Z,3.10
2019-02-09T11:17:44.910Z,3.33
2019-02-09T11:20:16.357Z,3.00
2019-02-09T11:22:44.618Z,2.67
2019-02-09T11:25:15.098Z,3.30
2019-02-09T11:27:43.341Z,2.83
2019-02-09T11:30:15.004Z,2.47
2019-02-09T11:32:43.247Z,3.40
2019-02-09T11:35:13.132Z,2.77
2019-02-09T11:37:41.451Z,2.90
2019-02-09T11:40:13.631Z,3.58
2019-02-09T11:42:41.887Z,3.23
2019-02-09T11:45:15.866Z,2.97
2019-02-09T11:47:44.147Z,3.57
2019-02-09T11:50:14.126Z,3.07
2019-02-09T11:52:42.371Z,4.30
2019-02-09T11:55:15.989Z,3.07
2019-02-09T11:57:44.290Z,4.00
2019-02-09T12:00:18.382Z,3.80
2019-02-09T12:02:46.930Z,3.25
2019-02-09T12:05:15.435Z,3.33
2019-02-09T12:07:43.885Z,3.17
2019-02-09T12:10:20.084Z,3.00
2019-02-09T12:12:48.392Z,3.75
2019-02-09T12:15:25.591Z,3.30
2019-02-09T12:17:53.848Z,3.00
2019-02-09T12:20:22.424Z,3.43
2019-02-09T12:22:50.693Z,3.55
2019-02-09T12:25:21.285Z,4.93
2019-02-09T12:27:49.553Z,2.43
2019-02-09T12:30:25.596Z,3.27
2019-02-09T12:32:53.908Z,5.00
2019-02-09T12:35:22.443Z,3.87
2019-02-09T12:37:50.654Z,2.87
2019-02-09T12:40:24.608Z,3.00
2019-02-09T12:42:52.846Z,3.03
2019-02-09T12:45:25.567Z,5.30
2019-02-09T12:47:53.830Z,3.05
2019-02-09T12:50:24.328Z,3.30
2019-02-09T12:52:52.657Z,3.17
2019-02-09T12:55:20.966Z,3.80
2019-02-09T12:57:49.230Z,2.65
2019-02-09T13:00:37.117Z,2.95
2019-02-09T13:03:14.370Z,2.60
2019-02-09T13:05:42.654Z,3.60
2019-02-09T13:08:10.973Z,2.43
2019-02-09T13:10:39.226Z,4.00
2019-02-09T13:13:07.475Z,3.35
2019-02-09T13:15:35.778Z,2.57
2019-02-09T13:18:04.359Z,3.03
2019-02-09T13:20:33.340Z,4.03
2019-02-09T13:23:01.661Z,2.80
2019-02-09T13:25:29.913Z,2.03
2019-02-09T13:27:58.425Z,2.77
2019-02-09T13:30:35.272Z,2.80
2019-02-09T13:33:03.517Z,3.77
2019-02-09T13:35:31.766Z,3.27
2019-02-09T13:38:00.035Z,2.80
2019-02-09T13:40:28.724Z,3.15
2019-02-09T13:42:58.113Z,3.20
2019-02-09T13:45:44.363Z,2.83
2019-02-09T13:48:12.612Z,2.98
2019-02-09T13:50:40.994Z,3.20
2019-02-09T13:53:09.309Z,2.50
2019-02-09T13:55:37.578Z,3.07
2019-02-09T13:58:05.824Z,3.50
2019-02-09T14:00:34.140Z,3.80
2019-02-09T14:03:03.130Z,2.60
2019-02-09T14:05:31.408Z,2.70
2019-02-09T14:07:59.902Z,2.63
2019-02-09T14:10:28.824Z,3.77
2019-02-09T14:12:57.221Z,3.22
2019-02-09T14:15:29.957Z,2.40
2019-02-09T14:17:59.349Z,2.50
2019-02-09T14:20:27.662Z,2.20
2019-02-09T14:22:55.994Z,3.40
2019-02-09T14:25:24.244Z,2.60
2019-02-09T14:27:54.200Z,2.52
2019-02-09T14:30:27.921Z,2.70
2019-02-09T14:32:56.231Z,2.70
2019-02-09T14:35:24.487Z,2.47
2019-02-09T14:37:53.281Z,2.17
2019-02-09T14:40:30.070Z,2.58
2019-02-09T14:42:58.397Z,2.20
2019-02-09T14:45:34.396Z,2.83
2019-02-09T14:48:02.633Z,2.20
2019-02-09T14:50:30.892Z,2.50
2019-02-09T14:52:59.215Z,2.67
2019-02-09T14:55:29.655Z,2.90
2019-02-09T14:57:57.890Z,2.63
2019-02-09T15:00:37.474Z,2.70
2019-02-09T15:03:06.874Z,3.60
2019-02-09T15:05:35.187Z,3.33
2019-02-09T15:08:03.498Z,2.97
2019-02-09T15:10:31.738Z,3.77
2019-02-09T15:12:59.984Z,3.62
2019-02-09T15:15:31.038Z,3.50
2019-02-09T15:17:59.292Z,3.10
2019-02-09T15:20:33.607Z,2.77
2019-02-09T15:23:01.847Z,2.73
2019-02-09T15:25:31.972Z,3.03
2019-02-09T15:28:00.223Z,3.70
2019-02-09T15:30:30.098Z,3.20
2019-02-09T15:32:58.350Z,2.70
2019-02-09T15:35:26.667Z,3.00
2019-02-09T15:37:54.917Z,3.00
2019-02-09T15:40:23.254Z,2.85
2019-02-09T15:42:51.497Z,3.80
2019-02-09T15:45:22.476Z,3.97
2019-02-09T15:47:50.803Z,3.33
2019-02-09T15:50:19.321Z,4.03
2019-02-09T15:52:48.712Z,3.52
2019-02-09T15:55:22.271Z,4.10
2019-02-09T15:57:50.562Z,3.20
2019-02-09T16:00:31.895Z,4.63
2019-02-09T16:03:00.883Z,3.27
2019-02-09T16:05:29.214Z,3.43
2019-02-09T16:07:57.450Z,2.85
2019-02-09T16:10:26.059Z,3.60
2019-02-09T16:12:54.567Z,3.00
2019-02-09T16:15:28.779Z,2.80
2019-02-09T16:17:57.028Z,2.50
2019-02-09T16:20:27.789Z,3.58
2019-02-09T16:22:56.021Z,2.97
2019-02-09T16:25:24.297Z,3.40
2019-02-09T16:27:52.535Z,2.97
2019-02-09T16:30:30.413Z,3.00
2019-02-09T16:32:58.645Z,3.40
2019-02-09T16:35:28.240Z,3.23
2019-02-09T16:37:56.501Z,3.13
2019-02-09T16:40:30.438Z,2.80
2019-02-09T16:42:58.676Z,3.50
2019-02-09T16:45:35.988Z,2.97
2019-02-09T16:48:07.504Z,3.70
2019-02-09T16:50:35.751Z,4.72
2019-02-09T16:53:04.462Z,3.83
2019-02-09T16:55:32.792Z,3.13
2019-02-09T16:58:01.090Z,3.47
2019-02-09T17:00:32.417Z,3.25
2019-02-09T17:03:00.657Z,4.80
2019-02-09T17:05:28.906Z,3.17
2019-02-09T17:07:57.157Z,3.03
2019-02-09T17:10:25.434Z,3.30
2019-02-09T17:12:53.664Z,3.00
2019-02-09T17:15:25.206Z,4.20
2019-02-09T17:17:53.415Z,2.52
2019-02-09T17:20:21.687Z,2.97
2019-02-09T17:22:51.687Z,3.47
2019-02-09T17:25:24.670Z,4.23
2019-02-09T17:27:52.914Z,3.60
2019-02-09T17:30:32.802Z,2.87
2019-02-09T17:33:01.050Z,3.22
2019-02-09T17:35:29.376Z,4.47
2019-02-09T17:37:57.627Z,3.03
2019-02-09T17:40:28.036Z,4.17
2019-02-09T17:42:56.288Z,3.77
2019-02-09T17:45:29.722Z,3.77
2019-02-09T17:47:57.993Z,5.17
2019-02-09T17:50:26.261Z,3.13
2019-02-09T17:52:54.512Z,4.47
2019-02-09T17:55:22.835Z,3.73
2019-02-09T17:57:51.101Z,4.33
2019-02-09T18:00:24.147Z,4.13
2019-02-09T18:02:52.418Z,3.70
2019-02-09T18:05:20.663Z,5.03
2019-02-09T18:07:48.916Z,4.30
2019-02-09T18:10:18.310Z,3.37
2019-02-09T18:12:46.565Z,4.00
2019-02-09T18:15:19.608Z,4.45
2019-02-09T18:17:47.864Z,4.50
2019-02-09T18:20:16.969Z,4.15
2019-02-09T18:22:45.212Z,3.92
2019-02-09T18:25:16.080Z,4.20
2019-02-09T18:27:44.343Z,4.50
2019-02-09T18:30:20.717Z,5.10
2019-02-09T18:32:49.032Z,4.10
2019-02-09T18:35:17.309Z,4.67
2019-02-09T18:37:45.563Z,4.47
2019-02-09T18:40:21.374Z,3.63
2019-02-09T18:42:49.643Z,4.17
2019-02-09T18:45:31.201Z,3.13
2019-02-09T18:47:59.630Z,4.43
2019-02-09T18:50:31.485Z,4.57
2019-02-09T18:53:00.879Z,3.90
2019-02-09T18:55:29.676Z,3.63
2019-02-09T18:57:58.023Z,4.40
2019-02-09T19:00:34.404Z,5.60
2019-02-09T19:03:02.745Z,5.00
2019-02-09T19:05:31.024Z,4.43
2019-02-09T19:07:59.335Z,4.17
2019-02-09T19:10:28.649Z,3.90
2019-02-09T19:12:57.130Z,5.92
2019-02-09T19:15:27.292Z,4.03
2019-02-09T19:17:56.593Z,4.07
2019-02-09T19:20:42.510Z,3.53
2019-02-09T19:23:10.852Z,4.12
2019-02-09T19:25:39.103Z,4.30
2019-02-09T19:28:07.528Z,3.97
2019-02-09T19:30:36.560Z,3.40
2019-02-09T19:33:05.725Z,3.80
2019-02-09T19:35:34.000Z,3.25
2019-02-09T19:38:02.253Z,4.50
2019-02-09T19:40:31.522Z,3.90
2019-02-09T19:42:59.995Z,3.20
2019-02-09T19:45:38.648Z,3.53
2019-02-09T19:48:07.752Z,4.53
2019-02-09T19:50:35.991Z,3.50
2019-02-09T19:53:04.521Z,4.57
2019-02-09T19:55:35.145Z,4.33
2019-02-09T19:58:03.588Z,4.40
2019-02-09T20:00:45.929Z,3.50
2019-02-09T20:03:14.278Z,4.80
2019-02-09T20:05:42.542Z,4.95
2019-02-09T20:08:11.196Z,4.80
2019-02-09T20:10:40.891Z,3.97
2019-02-09T20:13:11.848Z,3.50
2019-02-09T20:15:40.104Z,5.50
2019-02-09T20:18:09.098Z,3.57
2019-02-09T20:20:37.483Z,4.25
2019-02-09T20:23:06.221Z,3.70
2019-02-09T20:25:36.979Z,4.10
2019-02-09T20:28:06.198Z,4.37
2019-02-09T20:30:36.925Z,3.20
2019-02-09T20:33:05.553Z,3.00
2019-02-09T20:35:35.694Z,4.15
2019-02-09T20:38:05.094Z,4.15
2019-02-09T20:40:53.520Z,3.17
2019-02-09T20:43:22.438Z,3.40
2019-02-09T20:45:50.754Z,3.95
2019-02-09T20:48:19.004Z,3.60
2019-02-09T20:50:47.257Z,3.60
2019-02-09T20:53:15.507Z,3.20
2019-02-09T20:55:43.757Z,4.13
2019-02-09T20:58:13.354Z,3.63
2019-02-09T21:00:41.663Z,3.30
2019-02-09T21:03:09.930Z,4.50
2019-02-09T21:05:38.435Z,5.13
2019-02-09T21:08:07.010Z,3.70
2019-02-09T21:10:44.437Z,3.07
2019-02-09T21:13:13.683Z,4.30
2019-02-09T21:15:41.948Z,3.63
2019-02-09T21:18:10.267Z,3.17
2019-02-09T21:20:38.827Z,3.90
2019-02-09T21:23:07.365Z,4.57
2019-02-09T21:25:40.929Z,4.00
2019-02-09T21:28:10.824Z,2.83
2019-02-09T21:30:39.220Z,3.42
2019-02-09T21:33:10.845Z,4.43
2019-02-09T21:35:44.064Z,3.37
2019-02-09T21:38:10.973Z,3.23
2019-02-09T21:40:39.247Z,3.60
2019-02-09T21:43:08.468Z,3.73
2019-02-09T21:45:44.557Z,3.47
2019-02-09T21:48:06.754Z,4.62
2019-02-09T21:50:39.501Z,4.28
2019-02-09T21:53:08.320Z,4.15
2019-02-09T21:55:36.859Z,4.70
2019-02-09T21:58:06.477Z,3.60
2019-02-09T22:00:39.571Z,4.60
2019-02-09T22:03:09.174Z,4.08
2019-02-09T22:05:37.436Z,3.90
2019-02-09T22:08:07.516Z,3.20
2019-02-09T22:10:35.766Z,3.40
2019-02-09T22:13:04.029Z,4.07
2019-02-09T22:15:38.946Z,3.87
2019-02-09T22:18:03.510Z,3.73
2019-02-09T22:20:31.735Z,4.22
2019-02-09T22:22:59.974Z,3.43
2019-02-09T22:25:29.163Z,2.40
2019-02-09T22:27:57.486Z,3.30
2019-02-09T22:30:27.362Z,3.90
2019-02-09T22:32:55.763Z,3.27
2019-02-09T22:35:24.237Z,3.87
2019-02-09T22:37:52.470Z,4.87
2019-02-09T22:40:28.056Z,3.40
2019-02-09T22:42:56.306Z,3.50
2019-02-09T22:45:25.257Z,3.77
2019-02-09T22:47:54.301Z,4.30
2019-02-09T22:50:34.028Z,3.60
2019-02-09T22:53:02.284Z,3.23
2019-02-09T22:55:30.523Z,3.30
2019-02-09T22:57:58.763Z,2.93
2019-02-09T23:00:47.642Z,3.50
2019-02-09T23:03:16.758Z,4.00
2019-02-09T23:05:48.165Z,2.97
2019-02-09T23:08:16.430Z,4.37
2019-02-09T23:10:44.702Z,3.53
2019-02-09T23:13:12.943Z,3.50
2019-02-09T23:15:41.192Z,4.17
2019-02-09T23:18:09.439Z,3.20
2019-02-09T23:20:37.690Z,4.00
2019-02-09T23:23:05.939Z,4.17
2019-02-09T23:25:34.178Z,3.80
2019-02-09T23:28:02.436Z,3.93
2019-02-09T23:30:30.689Z,3.90
2019-02-09T23:32:58.972Z,3.30
2019-02-09T23:35:27.211Z,2.80
2019-02-09T23:37:55.462Z,3.37
2019-02-09T23:40:23.737Z,5.17
2019-02-09T23:42:51.985Z,3.27
2019-02-09T23:45:20.253Z,4.70
2019-02-09T23:47:48.504Z,3.73
2019-02-09T23:50:16.763Z,4.13
2019-02-09T23:52:45.010Z,4.10
2019-02-09T23:55:13.260Z,3.15
2019-02-09T23:57:41.513Z,3.50
